Flight Track Log - Related Links

Times and Time Zones

All times are in EST time to prevent confusion due to time zone crossing. See the LOF3365 flight status page for this flight to view local times or setup timezone preferences in your user account.

Time Position Orientation Groundspeed Altitude Reporting Facility
EST Latitude Longitude Course Direction KTS MPH feet Rate Location/Type
Tue 09:34:07 PM 29.9639 -95.3433 67° East 140 161 700  Level Houston Center
Tue 09:35:14 PM 29.9822 -95.2928 67° East 248 285 2,300 1,688 Climbing Houston Center
Tue 09:36:15 PM 30.0567 -95.2789 North 266 306 4,300 1,652 Climbing Houston Center
Tue 09:36:23 PM 30.0511 -95.2794 185° South 253 291 4,200 1,565 Descending Houston Center
Tue 09:37:24 PM 30.1275 -95.2575 14° North 277 319 6,100 2,164 Climbing Houston Center
Tue 09:38:25 PM 30.2183 -95.2300 15° North 281 323 8,600 1,967 Climbing Houston Center
Tue 09:39:26 PM 30.2947 -95.2067 15° North 283 326 10,100 1,377 Climbing Houston Center
Tue 09:40:27 PM 30.3783 -95.1825 14° North 304 350 11,400 1,220 Climbing Houston Center
Tue 09:41:29 PM 30.4578 -95.1569 15° North 314 361 12,600 1,268 Climbing Houston Center
Tue 09:42:30 PM 30.5400 -95.1044 29° Northeast 336 387 14,000 1,279 Climbing Houston Center
Tue 09:43:31 PM 30.6231 -95.0528 28° Northeast 338 389 15,200 1,279 Climbing Houston Center
Tue 09:44:32 PM 30.7258 -94.9897 28° Northeast 347 399 16,600 1,279 Climbing Houston Center
Tue 09:45:33 PM 30.8136 -94.9350 28° Northeast 355 409 17,800 1,131 Climbing Houston Center
Tue 09:46:34 PM 30.9014 -94.8797 28° Northeast 358 412 18,900 1,082 Climbing Houston Center
Tue 09:47:35 PM 30.9903 -94.8250 28° Northeast 361 415 20,000 984 Climbing Houston Center
Tue 09:48:36 PM 31.0797 -94.7689 28° Northeast 365 420 20,900 836 Climbing Houston Center
Tue 09:49:37 PM 31.1697 -94.7150 27° Northeast 369 425 21,700 738 Climbing Houston Center
Tue 09:50:38 PM 31.2664 -94.6889 13° North 376 433 22,400 787 Climbing Houston Center
Tue 09:51:39 PM 31.3875 -94.6569 13° North 375 432 23,300 836 Climbing Houston Center
Tue 09:52:40 PM 31.4892 -94.6294 13° North 375 432 24,100 787 Climbing Houston Center
Tue 09:53:41 PM 31.5931 -94.6006 13° North 380 437 24,900 787 Climbing Houston Center
Tue 09:54:42 PM 31.6964 -94.5736 13° North 381 438 25,700 738 Climbing Houston Center
Tue 09:55:43 PM 31.8000 -94.5456 13° North 381 438 26,400 769 Climbing Houston Center
Tue 09:56:39 PM 31.9050 -94.5178 13° North 383 441 27,200 821 Climbing Fort Worth Center
Tue 09:57:40 PM 32.0083 -94.4894 13° North 380 437 28,000 732 Climbing Fort Worth Center
Tue 09:58:42 PM 32.1125 -94.4600 13° North 382 440 28,700 480 Climbing Fort Worth Center
Tue 09:59:45 PM 32.2214 -94.4325 12° North 382 440 29,000 145 Climbing Fort Worth Center
Tue 10:00:46 PM 32.3306 -94.4017 13° North 400 460 29,000  Level Fort Worth Center
Tue 10:01:48 PM 32.4433 -94.3708 13° North 413 475 29,000  Level Fort Worth Center
Tue 10:02:49 PM 32.5583 -94.3386 13° North 423 487 29,000  Level Fort Worth Center
Tue 10:03:51 PM 32.6747 -94.3064 13° North 428 493 29,000  Level Fort Worth Center
Tue 10:04:52 PM 32.7900 -94.2742 13° North 426 490 29,000 -49 Level Fort Worth Center
Tue 10:05:54 PM 32.9072 -94.2425 13° North 430 495 28,900 -49 Descending Fort Worth Center
Tue 10:06:55 PM 33.0231 -94.2100 13° North 428 493 28,900  Level Fort Worth Center
Tue 10:07:57 PM 33.1597 -94.1722 13° North 418 481 28,900 49 Level Fort Worth Center
Tue 10:08:58 PM 33.2722 -94.1425 12° North 411 473 29,000 49 Climbing Fort Worth Center
Tue 10:10:00 PM 33.3858 -94.1114 13° North 411 473 29,000 -49 Level Fort Worth Center
Tue 10:11:01 PM 33.4997 -94.0781 14° North 406 467 28,900 -49 Descending Fort Worth Center
Tue 10:12:02 PM 33.6086 -94.0753 North 396 456 28,900  Level Fort Worth Center
Tue 10:13:04 PM 33.7186 -94.0775 359° North 394 453 28,900  Level Fort Worth Center
Tue 10:14:05 PM 33.8294 -94.0789 359° North 397 457 28,900 49 Level Fort Worth Center
Tue 10:15:07 PM 33.9422 -94.0806 359° North 402 463 29,000 49 Climbing Fort Worth Center
Tue 10:16:08 PM 34.0553 -94.0817 360° North 404 465 29,000 -49 Level Fort Worth Center
Tue 10:17:09 PM 34.1686 -94.0861 358° North 408 470 28,900  Descending Fort Worth Center
Tue 10:18:11 PM 34.2817 -94.0847 North 407 468 29,000  Climbing Fort Worth Center
Tue 10:19:12 PM 34.3967 -94.0564 11° North 420 483 28,900  Descending Fort Worth Center
Tue 10:19:47 PM 34.4650 -94.0394 12° North 420 483 29,000 63 Climbing Memphis Center
Tue 10:20:48 PM 34.5994 -94.0086 11° North 421 484 29,000  Level Memphis Center
Tue 10:21:49 PM 34.7139 -93.9803 12° North 420 483 29,000 -49 Level Memphis Center
Tue 10:22:50 PM 34.8300 -93.9533 11° North 422 486 28,900  Descending Memphis Center
Tue 10:23:51 PM 34.9481 -93.9250 11° North 422 486 29,000  Climbing Memphis Center
Tue 10:24:52 PM 35.0628 -93.8978 11° North 421 484 28,900  Descending Memphis Center
Tue 10:25:53 PM 35.1792 -93.8706 11° North 423 487 29,000  Climbing Memphis Center
Tue 10:26:54 PM 35.2961 -93.8419 11° North 425 489 28,900  Descending Memphis Center
Tue 10:27:55 PM 35.4100 -93.8144 11° North 425 489 29,000 49 Climbing Memphis Center
Tue 10:28:56 PM 35.5261 -93.7867 11° North 423 487 29,000 -49 Level Memphis Center
Tue 10:29:57 PM 35.6411 -93.7594 11° North 422 486 28,900  Descending Memphis Center
Tue 10:30:58 PM 35.7569 -93.7314 11° North 421 484 29,000 49 Climbing Memphis Center
Tue 10:31:59 PM 35.8722 -93.7031 11° North 421 484 29,000  Level Memphis Center
Tue 10:33:00 PM 35.9875 -93.6750 11° North 421 484 29,000  Level Memphis Center
Tue 10:34:01 PM 36.1022 -93.6464 11° North 419 482 29,000 -49 Level Memphis Center
Tue 10:35:02 PM 36.2408 -93.6133 11° North 421 484 28,900 -49 Descending Memphis Center
Tue 10:36:03 PM 36.3561 -93.5839 12° North 422 486 28,900 49 Level Memphis Center
Tue 10:37:04 PM 36.4689 -93.5561 11° North 422 486 29,000  Climbing Memphis Center
Tue 10:38:05 PM 36.5850 -93.5269 11° North 424 488 28,900  Descending Memphis Center
Tue 10:39:06 PM 36.7014 -93.4975 11° North 425 489 29,000 49 Climbing Memphis Center
Tue 10:40:07 PM 36.8114 -93.4722 10° North 425 489 29,000  Level Memphis Center
Tue 10:41:08 PM 36.9256 -93.4425 12° North 421 484 29,000  Level Memphis Center
Tue 10:42:09 PM 37.0406 -93.4136 11° North 419 482 29,000  Level Memphis Center
Tue 10:43:10 PM 37.1536 -93.3631 20° North 431 496 29,000  Level Memphis Center
Tue 10:44:11 PM 37.2722 -93.2406 39° Northeast 456 525 29,000  Level Memphis Center
Tue 10:45:23 PM 37.3733 -93.1403 38° Northeast 460 529 29,000 -45 Level Kansas City Center
Tue 10:46:23 PM 37.4728 -93.0378 39° Northeast 460 529 28,900 -295 Descending Kansas City Center
Tue 10:47:25 PM 37.5728 -92.9347 39° Northeast 461 531 28,400 -738 Descending Kansas City Center
Tue 10:48:25 PM 37.6703 -92.8317 40° Northeast 457 526 27,400 -1,041 Descending Kansas City Center
Tue 10:49:26 PM 37.7769 -92.7175 40° Northeast 455 524 26,300 -1,190 Descending Kansas City Center
Tue 10:50:26 PM 37.8731 -92.6153 40° Northeast 453 521 25,000 -1,377 Descending Kansas City Center
Tue 10:51:28 PM 37.9694 -92.5153 39° Northeast 451 519 23,500 -1,452 Descending Kansas City Center
Tue 10:52:30 PM 38.0656 -92.4139 40° Northeast 450 518 22,000 -1,306 Descending Kansas City Center
Tue 10:53:32 PM 38.1586 -92.3131 40° Northeast 442 509 20,800 -1,171 Descending Kansas City Center
Tue 10:54:33 PM 38.2406 -92.2097 45° Northeast 429 494 19,600 -934 Descending Kansas City Center
Tue 10:55:34 PM 38.3161 -92.0481 59° Northeast 435 501 18,900 -1,059 Descending Kansas City Center
Tue 10:56:32 PM 38.3764 -91.9144 60° Northeast 436 502 17,500 -1,438 Descending Kansas City Center
Tue 10:57:35 PM 38.4378 -91.7789 60° Northeast 437 503 16,000 -1,680 Descending Kansas City Center
Tue 10:58:37 PM 38.4983 -91.6458 60° Northeast 435 501 14,000 -1,756 Descending Kansas City Center
Tue 10:59:38 PM 38.5558 -91.5153 61° Northeast 426 490 12,400 -1,438 Descending Kansas City Center
Tue 11:00:38 PM 38.6108 -91.3897 61° Northeast 409 471 11,100 -738 Descending Kansas City Center
Tue 11:01:40 PM 38.6553 -91.2778 63° Northeast 380 437 10,900 -585 Descending Kansas City Center
Tue 11:02:41 PM 38.6725 -91.1686 79° East 326 375 9,900 -1,100 Descending Kansas City Center
Tue 11:03:40 PM 38.6931 -91.0583 77° East 319 367 8,700 -1,131 Descending Kansas City Center
Tue 11:04:43 PM 38.7133 -90.9528 76° East 311 358 7,600 -1,113 Descending Kansas City Center
Tue 11:05:44 PM 38.7322 -90.8511 77° East 300 345 6,400 -1,171 Descending Kansas City Center
Tue 11:06:46 PM 38.7508 -90.7497 77° East 293 337 5,200 -1,122 Descending Kansas City Center
Tue 11:07:47 PM 38.7689 -90.6519 77° East 288 331 4,100 -1,082 Descending Kansas City Center
Tue 11:08:48 PM 38.7850 -90.5606 77° East 276 318 3,000 -787 Descending Kansas City Center
Tue 11:09:49 PM 38.7992 -90.4850 76° East 237 273 2,500 -689 Descending Kansas City Center
Tue 11:10:50 PM 38.7803 -90.4300 114° Southeast 192 221 1,600 -942 Descending Kansas City Center
Tue 11:11:50 PM 38.7531 -90.3764 123° Southeast 161 185 600 -1,000 Descending Kansas City Center

Login

Don't have an account? Register now (free) for customized features, flight alerts, and more!